sensor_id;sensor_type;location;lat;lon;timestamp;P1;durP1;ratioP1;P2;durP2;ratioP2
48945;SDS011;34999;50.940;3.998;2022-10-16T00:01:39;1.30;;;1.30;;
48945;SDS011;34999;50.940;3.998;2022-10-16T00:04:08;4.37;;;1.50;;
48945;SDS011;34999;50.940;3.998;2022-10-16T00:06:37;2.10;;;1.50;;
48945;SDS011;34999;50.940;3.998;2022-10-16T00:09:06;5.40;;;1.53;;
48945;SDS011;34999;50.940;3.998;2022-10-16T00:11:37;2.57;;;1.43;;
48945;SDS011;34999;50.940;3.998;2022-10-16T00:14:07;1.93;;;1.60;;
48945;SDS011;34999;50.940;3.998;2022-10-16T00:16:37;2.30;;;1.37;;
48945;SDS011;34999;50.940;3.998;2022-10-16T00:19:06;2.73;;;1.47;;
48945;SDS011;34999;50.940;3.998;2022-10-16T00:21:34;2.63;;;1.43;;
48945;SDS011;34999;50.940;3.998;2022-10-16T00:24:04;1.80;;;1.50;;
48945;SDS011;34999;50.940;3.998;2022-10-16T00:26:36;1.47;;;1.47;;
48945;SDS011;34999;50.940;3.998;2022-10-16T00:29:06;1.80;;;1.60;;
48945;SDS011;34999;50.940;3.998;2022-10-16T00:31:34;1.50;;;1.50;;
48945;SDS011;34999;50.940;3.998;2022-10-16T00:34:02;1.90;;;1.50;;
48945;SDS011;34999;50.940;3.998;2022-10-16T00:36:31;1.73;;;1.50;;
48945;SDS011;34999;50.940;3.998;2022-10-16T00:38:59;2.43;;;1.43;;
48945;SDS011;34999;50.940;3.998;2022-10-16T00:41:28;5.13;;;1.70;;
48945;SDS011;34999;50.940;3.998;2022-10-16T00:44:00;1.60;;;1.50;;
48945;SDS011;34999;50.940;3.998;2022-10-16T00:46:33;2.03;;;1.60;;
48945;SDS011;34999;50.940;3.998;2022-10-16T00:49:05;1.67;;;1.53;;
48945;SDS011;34999;50.940;3.998;2022-10-16T00:51:36;3.30;;;1.60;;
48945;SDS011;34999;50.940;3.998;2022-10-16T00:54:08;1.57;;;1.57;;
48945;SDS011;34999;50.940;3.998;2022-10-16T00:56:40;1.40;;;1.40;;
48945;SDS011;34999;50.940;3.998;2022-10-16T00:59:13;3.57;;;1.50;;
48945;SDS011;34999;50.940;3.998;2022-10-16T01:01:44;1.50;;;1.50;;
48945;SDS011;34999;50.940;3.998;2022-10-16T01:04:12;1.40;;;1.40;;
48945;SDS011;34999;50.940;3.998;2022-10-16T01:06:42;1.33;;;1.33;;
48945;SDS011;34999;50.940;3.998;2022-10-16T01:09:17;2.80;;;1.60;;
48945;SDS011;34999;50.940;3.998;2022-10-16T01:11:53;1.43;;;1.43;;
48945;SDS011;34999;50.940;3.998;2022-10-16T01:14:33;1.63;;;1.50;;
48945;SDS011;34999;50.940;3.998;2022-10-16T01:17:08;1.57;;;1.47;;
48945;SDS011;34999;50.940;3.998;2022-10-16T01:22:37;1.73;;;1.63;;
48945;SDS011;34999;50.940;3.998;2022-10-16T01:25:12;1.50;;;1.50;;
48945;SDS011;34999;50.940;3.998;2022-10-16T01:27:51;1.73;;;1.63;;
48945;SDS011;34999;50.940;3.998;2022-10-16T01:30:21;2.40;;;1.60;;
48945;SDS011;34999;50.940;3.998;2022-10-16T01:32:55;3.30;;;1.90;;
48945;SDS011;34999;50.940;3.998;2022-10-16T01:35:27;1.67;;;1.30;;
48945;SDS011;34999;50.940;3.998;2022-10-16T01:38:00;1.87;;;1.73;;
48945;SDS011;34999;50.940;3.998;2022-10-16T01:40:33;1.60;;;1.60;;
48945;SDS011;34999;50.940;3.998;2022-10-16T01:43:06;1.97;;;1.87;;
48945;SDS011;34999;50.940;3.998;2022-10-16T01:45:38;2.53;;;1.77;;
48945;SDS011;34999;50.940;3.998;2022-10-16T01:48:09;1.80;;;1.70;;
48945;SDS011;34999;50.940;3.998;2022-10-16T01:50:42;5.80;;;1.60;;
48945;SDS011;34999;50.940;3.998;2022-10-16T01:53:12;1.83;;;1.73;;
48945;SDS011;34999;50.940;3.998;2022-10-16T01:55:44;1.90;;;1.80;;
48945;SDS011;34999;50.940;3.998;2022-10-16T01:58:16;3.07;;;1.87;;
48945;SDS011;34999;50.940;3.998;2022-10-16T02:00:45;1.80;;;1.70;;
48945;SDS011;34999;50.940;3.998;2022-10-16T02:03:18;2.27;;;2.17;;
48945;SDS011;34999;50.940;3.998;2022-10-16T02:05:49;1.90;;;1.80;;
48945;SDS011;34999;50.940;3.998;2022-10-16T02:08:21;2.27;;;1.70;;
48945;SDS011;34999;50.940;3.998;2022-10-16T02:10:52;2.30;;;2.00;;
48945;SDS011;34999;50.940;3.998;2022-10-16T02:13:26;2.23;;;2.03;;
48945;SDS011;34999;50.940;3.998;2022-10-16T02:16:01;2.07;;;1.97;;
48945;SDS011;34999;50.940;3.998;2022-10-16T02:18:29;2.10;;;1.90;;
48945;SDS011;34999;50.940;3.998;2022-10-16T02:20:59;2.20;;;2.20;;
48945;SDS011;34999;50.940;3.998;2022-10-16T02:23:33;2.50;;;2.10;;
48945;SDS011;34999;50.940;3.998;2022-10-16T02:26:06;4.20;;;2.30;;
48945;SDS011;34999;50.940;3.998;2022-10-16T02:28:42;3.00;;;2.23;;
48945;SDS011;34999;50.940;3.998;2022-10-16T02:31:16;2.50;;;2.00;;
48945;SDS011;34999;50.940;3.998;2022-10-16T02:33:50;2.10;;;2.00;;
48945;SDS011;34999;50.940;3.998;2022-10-16T02:36:20;2.40;;;2.30;;
48945;SDS011;34999;50.940;3.998;2022-10-16T02:38:49;4.03;;;2.20;;
48945;SDS011;34999;50.940;3.998;2022-10-16T02:41:18;2.23;;;2.13;;
48945;SDS011;34999;50.940;3.998;2022-10-16T02:43:49;2.37;;;2.20;;
48945;SDS011;34999;50.940;3.998;2022-10-16T02:46:17;2.40;;;2.20;;
48945;SDS011;34999;50.940;3.998;2022-10-16T02:48:46;4.63;;;2.10;;
48945;SDS011;34999;50.940;3.998;2022-10-16T02:51:14;2.83;;;2.50;;
48945;SDS011;34999;50.940;3.998;2022-10-16T02:53:43;2.63;;;2.43;;
48945;SDS011;34999;50.940;3.998;2022-10-16T02:56:11;2.37;;;2.20;;
48945;SDS011;34999;50.940;3.998;2022-10-16T02:58:40;2.60;;;2.07;;
48945;SDS011;34999;50.940;3.998;2022-10-16T03:01:10;2.60;;;2.40;;
48945;SDS011;34999;50.940;3.998;2022-10-16T03:03:39;2.70;;;2.50;;
48945;SDS011;34999;50.940;3.998;2022-10-16T03:06:07;3.23;;;2.33;;
48945;SDS011;34999;50.940;3.998;2022-10-16T03:08:38;2.67;;;2.30;;
48945;SDS011;34999;50.940;3.998;2022-10-16T03:11:06;3.50;;;2.63;;
48945;SDS011;34999;50.940;3.998;2022-10-16T03:13:35;3.23;;;2.60;;
48945;SDS011;34999;50.940;3.998;2022-10-16T03:16:03;4.87;;;2.60;;
48945;SDS011;34999;50.940;3.998;2022-10-16T03:18:33;2.30;;;2.20;;
48945;SDS011;34999;50.940;3.998;2022-10-16T03:21:02;3.07;;;2.67;;
48945;SDS011;34999;50.940;3.998;2022-10-16T03:23:30;2.47;;;2.37;;
48945;SDS011;34999;50.940;3.998;2022-10-16T03:25:58;4.63;;;2.50;;
48945;SDS011;34999;50.940;3.998;2022-10-16T03:28:27;3.50;;;2.43;;
48945;SDS011;34999;50.940;3.998;2022-10-16T03:30:55;2.50;;;2.30;;
48945;SDS011;34999;50.940;3.998;2022-10-16T03:33:24;3.30;;;2.37;;
48945;SDS011;34999;50.940;3.998;2022-10-16T03:35:53;2.57;;;2.40;;
48945;SDS011;34999;50.940;3.998;2022-10-16T03:38:22;2.80;;;2.60;;
48945;SDS011;34999;50.940;3.998;2022-10-16T03:40:50;5.30;;;2.70;;
48945;SDS011;34999;50.940;3.998;2022-10-16T03:43:19;4.03;;;2.50;;
48945;SDS011;34999;50.940;3.998;2022-10-16T03:45:47;2.80;;;2.60;;
48945;SDS011;34999;50.940;3.998;2022-10-16T03:48:17;2.60;;;2.50;;
48945;SDS011;34999;50.940;3.998;2022-10-16T03:50:46;3.20;;;2.80;;
48945;SDS011;34999;50.940;3.998;2022-10-16T03:53:16;2.60;;;2.50;;
48945;SDS011;34999;50.940;3.998;2022-10-16T03:55:44;2.93;;;2.73;;
48945;SDS011;34999;50.940;3.998;2022-10-16T03:58:13;2.83;;;2.63;;
48945;SDS011;34999;50.940;3.998;2022-10-16T04:00:41;3.63;;;2.60;;
48945;SDS011;34999;50.940;3.998;2022-10-16T04:03:10;3.87;;;2.50;;
48945;SDS011;34999;50.940;3.998;2022-10-16T04:05:38;3.03;;;2.70;;
48945;SDS011;34999;50.940;3.998;2022-10-16T04:08:07;5.80;;;2.67;;
48945;SDS011;34999;50.940;3.998;2022-10-16T04:10:37;2.83;;;2.53;;
48945;SDS011;34999;50.940;3.998;2022-10-16T04:13:06;5.53;;;2.90;;
48945;SDS011;34999;50.940;3.998;2022-10-16T04:15:34;4.47;;;2.77;;
48945;SDS011;34999;50.940;3.998;2022-10-16T04:18:03;3.23;;;2.93;;
48945;SDS011;34999;50.940;3.998;2022-10-16T04:20:31;3.23;;;2.93;;
48945;SDS011;34999;50.940;3.998;2022-10-16T04:23:00;6.23;;;2.73;;
48945;SDS011;34999;50.940;3.998;2022-10-16T04:25:29;3.67;;;3.00;;
48945;SDS011;34999;50.940;3.998;2022-10-16T04:28:00;3.17;;;2.70;;
48945;SDS011;34999;50.940;3.998;2022-10-16T04:30:28;6.17;;;2.73;;
48945;SDS011;34999;50.940;3.998;2022-10-16T04:32:56;3.00;;;2.80;;
48945;SDS011;34999;50.940;3.998;2022-10-16T04:35:25;2.73;;;2.60;;
48945;SDS011;34999;50.940;3.998;2022-10-16T04:37:53;3.83;;;2.80;;
48945;SDS011;34999;50.940;3.998;2022-10-16T04:40:21;3.60;;;2.90;;
48945;SDS011;34999;50.940;3.998;2022-10-16T04:42:52;3.90;;;3.00;;
48945;SDS011;34999;50.940;3.998;2022-10-16T04:45:22;4.17;;;2.93;;
48945;SDS011;34999;50.940;3.998;2022-10-16T04:47:50;3.27;;;2.70;;
48945;SDS011;34999;50.940;3.998;2022-10-16T04:50:18;5.00;;;2.90;;
48945;SDS011;34999;50.940;3.998;2022-10-16T04:52:47;3.93;;;2.80;;
48945;SDS011;34999;50.940;3.998;2022-10-16T04:55:15;2.93;;;2.73;;
48945;SDS011;34999;50.940;3.998;2022-10-16T04:57:43;3.20;;;2.90;;
48945;SDS011;34999;50.940;3.998;2022-10-16T05:00:12;3.40;;;2.60;;
48945;SDS011;34999;50.940;3.998;2022-10-16T05:02:42;5.23;;;3.23;;
48945;SDS011;34999;50.940;3.998;2022-10-16T05:05:11;3.87;;;2.73;;
48945;SDS011;34999;50.940;3.998;2022-10-16T05:07:41;2.90;;;2.70;;
48945;SDS011;34999;50.940;3.998;2022-10-16T05:10:09;3.27;;;3.07;;
48945;SDS011;34999;50.940;3.998;2022-10-16T05:12:38;3.10;;;2.90;;
48945;SDS011;34999;50.940;3.998;2022-10-16T05:15:06;3.80;;;2.80;;
48945;SDS011;34999;50.940;3.998;2022-10-16T05:17:36;3.07;;;2.80;;
48945;SDS011;34999;50.940;3.998;2022-10-16T05:20:12;3.43;;;2.83;;
48945;SDS011;34999;50.940;3.998;2022-10-16T05:22:41;2.77;;;2.50;;
48945;SDS011;34999;50.940;3.998;2022-10-16T05:25:09;2.93;;;2.53;;
48945;SDS011;34999;50.940;3.998;2022-10-16T05:27:37;3.10;;;2.90;;
48945;SDS011;34999;50.940;3.998;2022-10-16T05:30:06;3.43;;;2.80;;
48945;SDS011;34999;50.940;3.998;2022-10-16T05:32:38;3.23;;;2.93;;
48945;SDS011;34999;50.940;3.998;2022-10-16T05:35:06;4.93;;;3.30;;
48945;SDS011;34999;50.940;3.998;2022-10-16T05:37:39;4.07;;;3.20;;
48945;SDS011;34999;50.940;3.998;2022-10-16T05:40:08;6.60;;;3.03;;
48945;SDS011;34999;50.940;3.998;2022-10-16T05:42:36;3.27;;;3.07;;
48945;SDS011;34999;50.940;3.998;2022-10-16T05:45:05;3.47;;;3.17;;
48945;SDS011;34999;50.940;3.998;2022-10-16T05:47:36;3.53;;;3.20;;
48945;SDS011;34999;50.940;3.998;2022-10-16T05:50:04;3.47;;;3.10;;
48945;SDS011;34999;50.940;3.998;2022-10-16T05:52:33;4.97;;;3.00;;
48945;SDS011;34999;50.940;3.998;2022-10-16T05:55:04;4.70;;;3.00;;
48945;SDS011;34999;50.940;3.998;2022-10-16T05:57:32;5.37;;;3.10;;
48945;SDS011;34999;50.940;3.998;2022-10-16T06:00:01;7.73;;;3.23;;
48945;SDS011;34999;50.940;3.998;2022-10-16T06:02:29;3.77;;;3.17;;
48945;SDS011;34999;50.940;3.998;2022-10-16T06:04:58;3.47;;;3.17;;
48945;SDS011;34999;50.940;3.998;2022-10-16T06:07:26;5.60;;;3.20;;
48945;SDS011;34999;50.940;3.998;2022-10-16T06:09:55;3.33;;;3.00;;
48945;SDS011;34999;50.940;3.998;2022-10-16T06:12:25;3.50;;;3.03;;
48945;SDS011;34999;50.940;3.998;2022-10-16T06:14:54;4.80;;;3.03;;
48945;SDS011;34999;50.940;3.998;2022-10-16T06:17:23;4.97;;;3.40;;
48945;SDS011;34999;50.940;3.998;2022-10-16T06:19:52;4.90;;;3.10;;
48945;SDS011;34999;50.940;3.998;2022-10-16T06:22:20;5.00;;;2.80;;
48945;SDS011;34999;50.940;3.998;2022-10-16T06:24:48;3.87;;;2.87;;
48945;SDS011;34999;50.940;3.998;2022-10-16T06:27:17;5.27;;;2.90;;
48945;SDS011;34999;50.940;3.998;2022-10-16T06:29:46;3.67;;;3.00;;
48945;SDS011;34999;50.940;3.998;2022-10-16T06:32:15;4.80;;;3.23;;
48945;SDS011;34999;50.940;3.998;2022-10-16T06:34:43;6.67;;;3.73;;
48945;SDS011;34999;50.940;3.998;2022-10-16T06:37:11;5.50;;;3.43;;
48945;SDS011;34999;50.940;3.998;2022-10-16T06:39:40;4.00;;;2.77;;
48945;SDS011;34999;50.940;3.998;2022-10-16T06:42:08;4.00;;;3.03;;
48945;SDS011;34999;50.940;3.998;2022-10-16T06:44:37;5.23;;;2.83;;
48945;SDS011;34999;50.940;3.998;2022-10-16T06:47:09;5.23;;;3.07;;
48945;SDS011;34999;50.940;3.998;2022-10-16T06:49:37;3.87;;;3.23;;
48945;SDS011;34999;50.940;3.998;2022-10-16T06:52:05;4.33;;;3.30;;
48945;SDS011;34999;50.940;3.998;2022-10-16T06:54:34;5.07;;;3.13;;
48945;SDS011;34999;50.940;3.998;2022-10-16T06:57:07;3.40;;;3.00;;
48945;SDS011;34999;50.940;3.998;2022-10-16T06:59:36;3.40;;;3.17;;
48945;SDS011;34999;50.940;3.998;2022-10-16T07:02:04;3.37;;;3.17;;
48945;SDS011;34999;50.940;3.998;2022-10-16T07:04:34;3.43;;;3.13;;
48945;SDS011;34999;50.940;3.998;2022-10-16T07:07:03;3.50;;;3.20;;
48945;SDS011;34999;50.940;3.998;2022-10-16T07:09:34;4.10;;;3.30;;
48945;SDS011;34999;50.940;3.998;2022-10-16T07:12:05;5.30;;;3.40;;
48945;SDS011;34999;50.940;3.998;2022-10-16T07:14:33;5.77;;;2.83;;
48945;SDS011;34999;50.940;3.998;2022-10-16T07:17:02;5.00;;;3.10;;
48945;SDS011;34999;50.940;3.998;2022-10-16T07:19:30;5.97;;;3.10;;
48945;SDS011;34999;50.940;3.998;2022-10-16T07:22:01;4.63;;;3.23;;
48945;SDS011;34999;50.940;3.998;2022-10-16T07:24:29;3.30;;;3.00;;
48945;SDS011;34999;50.940;3.998;2022-10-16T07:26:58;3.00;;;2.80;;
48945;SDS011;34999;50.940;3.998;2022-10-16T07:29:26;2.90;;;2.70;;
48945;SDS011;34999;50.940;3.998;2022-10-16T07:31:54;3.00;;;2.47;;
48945;SDS011;34999;50.940;3.998;2022-10-16T07:34:22;3.87;;;2.70;;
48945;SDS011;34999;50.940;3.998;2022-10-16T07:36:52;3.50;;;2.63;;
48945;SDS011;34999;50.940;3.998;2022-10-16T07:39:22;3.70;;;2.63;;
48945;SDS011;34999;50.940;3.998;2022-10-16T07:41:50;5.07;;;3.13;;
48945;SDS011;34999;50.940;3.998;2022-10-16T07:44:18;3.23;;;2.57;;
48945;SDS011;34999;50.940;3.998;2022-10-16T07:46:47;2.90;;;2.50;;
48945;SDS011;34999;50.940;3.998;2022-10-16T07:49:15;2.47;;;2.30;;
48945;SDS011;34999;50.940;3.998;2022-10-16T07:51:43;3.57;;;2.60;;
48945;SDS011;34999;50.940;3.998;2022-10-16T07:54:12;3.53;;;2.40;;
48945;SDS011;34999;50.940;3.998;2022-10-16T07:56:41;3.03;;;2.23;;
48945;SDS011;34999;50.940;3.998;2022-10-16T07:59:10;6.17;;;2.30;;
48945;SDS011;34999;50.940;3.998;2022-10-16T08:01:38;3.10;;;2.80;;
48945;SDS011;34999;50.940;3.998;2022-10-16T08:04:08;2.83;;;2.23;;
48945;SDS011;34999;50.940;3.998;2022-10-16T08:06:37;3.50;;;2.20;;
48945;SDS011;34999;50.940;3.998;2022-10-16T08:09:07;2.83;;;2.63;;
48945;SDS011;34999;50.940;3.998;2022-10-16T08:11:39;4.60;;;2.47;;
48945;SDS011;34999;50.940;3.998;2022-10-16T08:14:08;3.27;;;2.70;;
48945;SDS011;34999;50.940;3.998;2022-10-16T08:16:37;3.47;;;2.23;;
48945;SDS011;34999;50.940;3.998;2022-10-16T08:19:05;5.13;;;2.57;;
48945;SDS011;34999;50.940;3.998;2022-10-16T08:21:33;2.63;;;2.43;;
48945;SDS011;34999;50.940;3.998;2022-10-16T08:24:02;2.37;;;2.27;;
48945;SDS011;34999;50.940;3.998;2022-10-16T08:26:30;2.40;;;2.10;;
48945;SDS011;34999;50.940;3.998;2022-10-16T08:28:59;2.47;;;2.23;;
48945;SDS011;34999;50.940;3.998;2022-10-16T08:31:28;3.13;;;2.50;;
48945;SDS011;34999;50.940;3.998;2022-10-16T08:33:57;2.43;;;2.20;;
48945;SDS011;34999;50.940;3.998;2022-10-16T08:36:25;2.60;;;2.40;;
48945;SDS011;34999;50.940;3.998;2022-10-16T08:38:53;2.80;;;2.20;;
48945;SDS011;34999;50.940;3.998;2022-10-16T08:44:31;4.53;;;2.10;;
48945;SDS011;34999;50.940;3.998;2022-10-16T08:47:35;4.80;;;2.53;;
48945;SDS011;34999;50.940;3.998;2022-10-16T08:50:13;2.20;;;2.10;;
48945;SDS011;34999;50.940;3.998;2022-10-16T08:52:49;3.70;;;1.90;;
48945;SDS011;34999;50.940;3.998;2022-10-16T08:55:22;5.63;;;2.30;;
48945;SDS011;34999;50.940;3.998;2022-10-16T08:57:59;4.10;;;2.13;;
48945;SDS011;34999;50.940;3.998;2022-10-16T09:00:27;6.57;;;1.83;;
48945;SDS011;34999;50.940;3.998;2022-10-16T09:03:03;3.17;;;2.00;;
48945;SDS011;34999;50.940;3.998;2022-10-16T09:05:44;5.53;;;2.20;;
48945;SDS011;34999;50.940;3.998;2022-10-16T09:08:27;5.03;;;2.10;;
48945;SDS011;34999;50.940;3.998;2022-10-16T09:11:03;3.77;;;1.93;;
48945;SDS011;34999;50.940;3.998;2022-10-16T09:13:43;4.20;;;2.10;;
48945;SDS011;34999;50.940;3.998;2022-10-16T09:16:19;2.27;;;2.00;;
48945;SDS011;34999;50.940;3.998;2022-10-16T09:18:54;4.77;;;2.30;;
48945;SDS011;34999;50.940;3.998;2022-10-16T09:21:32;1.83;;;1.70;;
48945;SDS011;34999;50.940;3.998;2022-10-16T09:24:08;6.27;;;2.03;;
48945;SDS011;34999;50.940;3.998;2022-10-16T09:26:40;4.80;;;1.87;;
48945;SDS011;34999;50.940;3.998;2022-10-16T09:29:10;6.10;;;1.87;;
48945;SDS011;34999;50.940;3.998;2022-10-16T09:31:40;3.70;;;1.83;;
48945;SDS011;34999;50.940;3.998;2022-10-16T09:34:11;3.47;;;1.67;;
48945;SDS011;34999;50.940;3.998;2022-10-16T09:36:51;6.90;;;2.60;;
48945;SDS011;34999;50.940;3.998;2022-10-16T09:39:19;6.10;;;2.13;;
48945;SDS011;34999;50.940;3.998;2022-10-16T09:41:48;3.73;;;2.03;;
48945;SDS011;34999;50.940;3.998;2022-10-16T09:44:18;2.00;;;1.80;;
48945;SDS011;34999;50.940;3.998;2022-10-16T09:47:00;10.50;;;1.50;;
48945;SDS011;34999;50.940;3.998;2022-10-16T09:49:30;6.17;;;1.90;;
48945;SDS011;34999;50.940;3.998;2022-10-16T09:52:05;7.17;;;1.83;;
48945;SDS011;34999;50.940;3.998;2022-10-16T09:54:48;3.13;;;1.53;;
48945;SDS011;34999;50.940;3.998;2022-10-16T09:57:20;5.93;;;1.83;;
48945;SDS011;34999;50.940;3.998;2022-10-16T09:59:50;3.20;;;1.80;;
48945;SDS011;34999;50.940;3.998;2022-10-16T10:02:22;3.67;;;1.70;;
48945;SDS011;34999;50.940;3.998;2022-10-16T10:04:58;5.07;;;1.73;;
48945;SDS011;34999;50.940;3.998;2022-10-16T10:07:27;2.77;;;1.80;;
48945;SDS011;34999;50.940;3.998;2022-10-16T10:10:03;4.17;;;1.60;;
48945;SDS011;34999;50.940;3.998;2022-10-16T10:12:33;3.80;;;1.97;;
48945;SDS011;34999;50.940;3.998;2022-10-16T10:15:04;3.13;;;1.80;;
48945;SDS011;34999;50.940;3.998;2022-10-16T10:17:44;4.80;;;1.80;;
48945;SDS011;34999;50.940;3.998;2022-10-16T10:20:21;3.53;;;1.90;;
48945;SDS011;34999;50.940;3.998;2022-10-16T10:22:51;4.03;;;1.70;;
48945;SDS011;34999;50.940;3.998;2022-10-16T10:25:26;3.27;;;2.07;;
48945;SDS011;34999;50.940;3.998;2022-10-16T10:28:17;3.70;;;1.70;;
48945;SDS011;34999;50.940;3.998;2022-10-16T10:30:55;8.00;;;1.97;;
48945;SDS011;34999;50.940;3.998;2022-10-16T10:33:31;2.90;;;2.00;;
48945;SDS011;34999;50.940;3.998;2022-10-16T10:36:11;3.97;;;1.90;;
48945;SDS011;34999;50.940;3.998;2022-10-16T10:38:50;4.63;;;2.00;;
48945;SDS011;34999;50.940;3.998;2022-10-16T10:41:27;2.20;;;1.80;;
48945;SDS011;34999;50.940;3.998;2022-10-16T10:44:21;2.57;;;2.00;;
48945;SDS011;34999;50.940;3.998;2022-10-16T10:47:01;2.17;;;1.90;;
48945;SDS011;34999;50.940;3.998;2022-10-16T10:49:44;2.33;;;2.00;;
48945;SDS011;34999;50.940;3.998;2022-10-16T10:52:30;8.43;;;2.00;;
48945;SDS011;34999;50.940;3.998;2022-10-16T10:55:12;6.87;;;1.90;;
48945;SDS011;34999;50.940;3.998;2022-10-16T10:57:52;4.07;;;2.00;;
48945;SDS011;34999;50.940;3.998;2022-10-16T11:00:30;3.63;;;1.80;;
48945;SDS011;34999;50.940;3.998;2022-10-16T11:03:12;3.77;;;1.87;;
48945;SDS011;34999;50.940;3.998;2022-10-16T11:05:52;6.07;;;1.80;;
48945;SDS011;34999;50.940;3.998;2022-10-16T11:08:27;3.80;;;1.60;;
48945;SDS011;34999;50.940;3.998;2022-10-16T11:11:01;3.70;;;2.03;;
48945;SDS011;34999;50.940;3.998;2022-10-16T11:13:33;4.60;;;1.70;;
48945;SDS011;34999;50.940;3.998;2022-10-16T11:16:10;5.03;;;1.63;;
48945;SDS011;34999;50.940;3.998;2022-10-16T11:18:49;3.70;;;1.80;;
48945;SDS011;34999;50.940;3.998;2022-10-16T11:21:22;5.60;;;2.03;;
48945;SDS011;34999;50.940;3.998;2022-10-16T11:23:58;4.60;;;1.87;;
48945;SDS011;34999;50.940;3.998;2022-10-16T11:26:34;3.30;;;1.63;;
48945;SDS011;34999;50.940;3.998;2022-10-16T11:29:08;6.37;;;1.60;;
48945;SDS011;34999;50.940;3.998;2022-10-16T11:31:44;5.07;;;1.80;;
48945;SDS011;34999;50.940;3.998;2022-10-16T11:34:17;2.33;;;1.50;;
48945;SDS011;34999;50.940;3.998;2022-10-16T11:36:51;4.43;;;1.63;;
48945;SDS011;34999;50.940;3.998;2022-10-16T11:39:25;2.13;;;1.67;;
48945;SDS011;34999;50.940;3.998;2022-10-16T11:41:56;3.83;;;1.70;;
48945;SDS011;34999;50.940;3.998;2022-10-16T11:44:36;3.67;;;1.77;;
48945;SDS011;34999;50.940;3.998;2022-10-16T11:47:15;4.20;;;1.57;;
48945;SDS011;34999;50.940;3.998;2022-10-16T11:50:17;5.03;;;1.73;;
48945;SDS011;34999;50.940;3.998;2022-10-16T11:52:51;2.37;;;1.43;;
48945;SDS011;34999;50.940;3.998;2022-10-16T11:55:28;6.17;;;1.70;;
48945;SDS011;34999;50.940;3.998;2022-10-16T11:58:03;4.67;;;1.73;;
48945;SDS011;34999;50.940;3.998;2022-10-16T12:00:37;3.17;;;1.53;;
48945;SDS011;34999;50.940;3.998;2022-10-16T12:03:15;4.97;;;1.57;;
48945;SDS011;34999;50.940;3.998;2022-10-16T12:05:52;3.70;;;1.60;;
48945;SDS011;34999;50.940;3.998;2022-10-16T12:08:27;2.73;;;1.30;;
48945;SDS011;34999;50.940;3.998;2022-10-16T12:11:06;3.37;;;1.57;;
48945;SDS011;34999;50.940;3.998;2022-10-16T12:13:36;2.60;;;1.50;;
48945;SDS011;34999;50.940;3.998;2022-10-16T12:16:07;3.60;;;1.60;;
48945;SDS011;34999;50.940;3.998;2022-10-16T12:19:02;5.70;;;1.77;;
48945;SDS011;34999;50.940;3.998;2022-10-16T12:21:38;6.13;;;1.80;;
48945;SDS011;34999;50.940;3.998;2022-10-16T12:24:06;1.60;;;1.43;;
48945;SDS011;34999;50.940;3.998;2022-10-16T12:26:53;4.17;;;1.60;;
48945;SDS011;34999;50.940;3.998;2022-10-16T12:29:23;4.43;;;1.70;;
48945;SDS011;34999;50.940;3.998;2022-10-16T12:32:00;4.77;;;1.73;;
48945;SDS011;34999;50.940;3.998;2022-10-16T12:34:34;2.93;;;1.37;;
48945;SDS011;34999;50.940;3.998;2022-10-16T12:37:11;3.10;;;1.73;;
48945;SDS011;34999;50.940;3.998;2022-10-16T12:39:44;1.97;;;1.50;;
48945;SDS011;34999;50.940;3.998;2022-10-16T12:42:23;2.60;;;1.30;;
48945;SDS011;34999;50.940;3.998;2022-10-16T12:45:00;2.07;;;1.50;;
48945;SDS011;34999;50.940;3.998;2022-10-16T12:47:36;3.43;;;1.33;;
48945;SDS011;34999;50.940;3.998;2022-10-16T12:50:31;3.53;;;1.40;;
48945;SDS011;34999;50.940;3.998;2022-10-16T12:53:02;2.17;;;1.20;;
48945;SDS011;34999;50.940;3.998;2022-10-16T12:55:34;2.77;;;1.37;;
48945;SDS011;34999;50.940;3.998;2022-10-16T12:58:19;3.80;;;1.20;;
48945;SDS011;34999;50.940;3.998;2022-10-16T13:01:16;2.53;;;1.43;;
48945;SDS011;34999;50.940;3.998;2022-10-16T13:04:04;1.20;;;1.10;;
48945;SDS011;34999;50.940;3.998;2022-10-16T13:06:59;2.03;;;1.20;;
48945;SDS011;34999;50.940;3.998;2022-10-16T13:09:42;1.43;;;1.03;;
48945;SDS011;34999;50.940;3.998;2022-10-16T13:12:30;2.77;;;1.40;;
48945;SDS011;34999;50.940;3.998;2022-10-16T13:15:31;1.30;;;1.20;;
48945;SDS011;34999;50.940;3.998;2022-10-16T13:18:17;1.27;;;1.20;;
48945;SDS011;34999;50.940;3.998;2022-10-16T13:20:56;1.63;;;1.30;;
48945;SDS011;34999;50.940;3.998;2022-10-16T13:23:35;2.63;;;1.43;;
48945;SDS011;34999;50.940;3.998;2022-10-16T13:26:15;2.60;;;1.33;;
48945;SDS011;34999;50.940;3.998;2022-10-16T13:28:51;1.87;;;1.37;;
48945;SDS011;34999;50.940;3.998;2022-10-16T13:31:21;1.80;;;1.70;;
48945;SDS011;34999;50.940;3.998;2022-10-16T13:33:52;3.40;;;1.50;;
48945;SDS011;34999;50.940;3.998;2022-10-16T13:36:26;2.50;;;1.60;;
48945;SDS011;34999;50.940;3.998;2022-10-16T13:39:06;5.43;;;1.60;;
48945;SDS011;34999;50.940;3.998;2022-10-16T13:41:40;1.43;;;1.20;;
48945;SDS011;34999;50.940;3.998;2022-10-16T13:44:12;1.30;;;1.17;;
48945;SDS011;34999;50.940;3.998;2022-10-16T13:46:44;1.97;;;1.00;;
48945;SDS011;34999;50.940;3.998;2022-10-16T13:49:13;1.70;;;1.40;;
48945;SDS011;34999;50.940;3.998;2022-10-16T13:51:53;1.50;;;1.40;;
48945;SDS011;34999;50.940;3.998;2022-10-16T13:54:23;1.77;;;1.50;;
48945;SDS011;34999;50.940;3.998;2022-10-16T13:56:51;2.10;;;1.50;;
48945;SDS011;34999;50.940;3.998;2022-10-16T13:59:35;3.47;;;1.87;;
48945;SDS011;34999;50.940;3.998;2022-10-16T14:02:08;3.50;;;1.57;;
48945;SDS011;34999;50.940;3.998;2022-10-16T14:04:45;2.50;;;1.40;;
48945;SDS011;34999;50.940;3.998;2022-10-16T14:07:16;2.77;;;1.33;;
48945;SDS011;34999;50.940;3.998;2022-10-16T14:09:50;1.53;;;1.30;;
48945;SDS011;34999;50.940;3.998;2022-10-16T14:12:19;3.90;;;1.60;;
48945;SDS011;34999;50.940;3.998;2022-10-16T14:14:54;4.17;;;1.33;;
48945;SDS011;34999;50.940;3.998;2022-10-16T14:17:26;4.13;;;1.60;;
48945;SDS011;34999;50.940;3.998;2022-10-16T14:19:57;1.73;;;1.50;;
48945;SDS011;34999;50.940;3.998;2022-10-16T14:22:32;2.47;;;1.50;;
48945;SDS011;34999;50.940;3.998;2022-10-16T14:25:15;2.07;;;1.20;;
48945;SDS011;34999;50.940;3.998;2022-10-16T14:28:00;1.97;;;1.33;;
48945;SDS011;34999;50.940;3.998;2022-10-16T14:30:31;3.13;;;1.50;;
48945;SDS011;34999;50.940;3.998;2022-10-16T14:33:03;1.73;;;1.33;;
48945;SDS011;34999;50.940;3.998;2022-10-16T14:35:33;3.27;;;1.30;;
48945;SDS011;34999;50.940;3.998;2022-10-16T14:38:03;3.40;;;1.40;;
48945;SDS011;34999;50.940;3.998;2022-10-16T14:40:34;1.67;;;1.20;;
48945;SDS011;34999;50.940;3.998;2022-10-16T14:43:04;3.73;;;1.30;;
48945;SDS011;34999;50.940;3.998;2022-10-16T14:45:33;1.97;;;1.50;;
48945;SDS011;34999;50.940;3.998;2022-10-16T14:48:05;4.23;;;1.40;;
48945;SDS011;34999;50.940;3.998;2022-10-16T14:50:45;4.20;;;1.80;;
48945;SDS011;34999;50.940;3.998;2022-10-16T14:53:14;2.43;;;1.53;;
48945;SDS011;34999;50.940;3.998;2022-10-16T14:55:42;1.53;;;1.43;;
48945;SDS011;34999;50.940;3.998;2022-10-16T14:58:13;3.23;;;1.57;;
48945;SDS011;34999;50.940;3.998;2022-10-16T15:00:43;2.83;;;1.50;;
48945;SDS011;34999;50.940;3.998;2022-10-16T15:03:13;3.23;;;1.50;;
48945;SDS011;34999;50.940;3.998;2022-10-16T15:05:42;3.13;;;1.30;;
48945;SDS011;34999;50.940;3.998;2022-10-16T15:08:10;2.67;;;1.60;;
48945;SDS011;34999;50.940;3.998;2022-10-16T15:10:40;5.50;;;1.97;;
48945;SDS011;34999;50.940;3.998;2022-10-16T15:13:11;5.30;;;1.67;;
48945;SDS011;34999;50.940;3.998;2022-10-16T15:15:41;3.07;;;1.70;;
48945;SDS011;34999;50.940;3.998;2022-10-16T15:18:11;2.53;;;1.47;;
48945;SDS011;34999;50.940;3.998;2022-10-16T15:20:42;2.60;;;1.60;;
48945;SDS011;34999;50.940;3.998;2022-10-16T15:23:12;2.10;;;1.60;;
48945;SDS011;34999;50.940;3.998;2022-10-16T15:25:42;4.77;;;1.60;;